sensor_id;sensor_type;location;lat;lon;timestamp;pressure;altitude;pressure_sealevel;temperature;humidity
62548;BME280;48602;45.192;5.722;2023-02-26T00:00:54;97922.63;;;6.16;62.78
62548;BME280;48602;45.192;5.722;2023-02-26T00:03:21;97912.28;;;6.13;62.91
62548;BME280;48602;45.192;5.722;2023-02-26T00:05:46;97921.06;;;6.12;63.08
62548;BME280;48602;45.192;5.722;2023-02-26T00:08:11;97908.03;;;6.10;63.00
62548;BME280;48602;45.192;5.722;2023-02-26T00:10:37;97909.78;;;6.10;62.88
62548;BME280;48602;45.192;5.722;2023-02-26T00:13:02;97922.94;;;6.08;62.68
62548;BME280;48602;45.192;5.722;2023-02-26T00:15:28;97918.69;;;6.06;62.68
62548;BME280;48602;45.192;5.722;2023-02-26T00:18:02;97896.91;;;6.05;62.85
62548;BME280;48602;45.192;5.722;2023-02-26T00:20:30;97908.28;;;6.04;63.05
62548;BME280;48602;45.192;5.722;2023-02-26T00:22:56;97896.97;;;6.04;62.80
62548;BME280;48602;45.192;5.722;2023-02-26T00:25:22;97903.03;;;6.04;62.87
62548;BME280;48602;45.192;5.722;2023-02-26T00:27:47;97908.38;;;6.03;62.70
62548;BME280;48602;45.192;5.722;2023-02-26T00:30:14;97904.03;;;6.02;62.29
62548;BME280;48602;45.192;5.722;2023-02-26T00:32:40;97904.03;;;6.02;62.55
62548;BME280;48602;45.192;5.722;2023-02-26T00:35:07;97909.22;;;6.03;61.95
62548;BME280;48602;45.192;5.722;2023-02-26T00:42:41;97914.34;;;6.05;61.78
62548;BME280;48602;45.192;5.722;2023-02-26T00:45:07;97924.81;;;6.05;61.40
62548;BME280;48602;45.192;5.722;2023-02-26T00:47:58;97915.38;;;6.02;61.96
62548;BME280;48602;45.192;5.722;2023-02-26T00:50:25;97900.56;;;6.01;62.02
62548;BME280;48602;45.192;5.722;2023-02-26T00:53:06;97911.84;;;6.03;61.62
62548;BME280;48602;45.192;5.722;2023-02-26T00:55:35;97906.59;;;6.03;61.67
62548;BME280;48602;45.192;5.722;2023-02-26T00:58:00;97905.75;;;6.03;61.95
62548;BME280;48602;45.192;5.722;2023-02-26T01:00:26;97918.88;;;6.01;61.19
62548;BME280;48602;45.192;5.722;2023-02-26T01:02:52;97912.00;;;5.99;61.76
62548;BME280;48602;45.192;5.722;2023-02-26T01:05:17;97906.78;;;5.99;61.47
62548;BME280;48602;45.192;5.722;2023-02-26T01:07:44;97891.22;;;5.95;61.77
62548;BME280;48602;45.192;5.722;2023-02-26T01:10:12;97903.44;;;5.95;61.66
62548;BME280;48602;45.192;5.722;2023-02-26T01:12:38;97907.03;;;5.92;61.25
62548;BME280;48602;45.192;5.722;2023-02-26T01:15:05;97922.88;;;5.88;61.18
62548;BME280;48602;45.192;5.722;2023-02-26T01:17:53;97904.75;;;5.83;61.40
62548;BME280;48602;45.192;5.722;2023-02-26T01:20:24;97902.28;;;5.80;61.79
62548;BME280;48602;45.192;5.722;2023-02-26T01:22:54;97913.03;;;5.73;61.10
62548;BME280;48602;45.192;5.722;2023-02-26T01:25:44;97907.16;;;5.68;61.75
62548;BME280;48602;45.192;5.722;2023-02-26T01:28:12;97918.50;;;5.67;61.48
62548;BME280;48602;45.192;5.722;2023-02-26T01:30:37;97905.63;;;5.62;61.52
62548;BME280;48602;45.192;5.722;2023-02-26T01:41:19;97893.16;;;5.47;61.96
62548;BME280;48602;45.192;5.722;2023-02-26T01:44:10;97891.50;;;5.44;61.33
62548;BME280;48602;45.192;5.722;2023-02-26T01:49:19;97892.53;;;5.40;61.32
62548;BME280;48602;45.192;5.722;2023-02-26T01:54:18;97899.72;;;5.35;61.31
62548;BME280;48602;45.192;5.722;2023-02-26T01:56:47;97898.97;;;5.32;61.22
62548;BME280;48602;45.192;5.722;2023-02-26T01:59:15;97896.47;;;5.29;60.93
62548;BME280;48602;45.192;5.722;2023-02-26T02:01:45;97888.75;;;5.25;61.09
62548;BME280;48602;45.192;5.722;2023-02-26T02:04:13;97888.00;;;5.22;61.26
62548;BME280;48602;45.192;5.722;2023-02-26T02:06:40;97898.59;;;5.19;61.75
62548;BME280;48602;45.192;5.722;2023-02-26T02:09:07;97896.00;;;5.19;61.49
62548;BME280;48602;45.192;5.722;2023-02-26T02:11:44;97863.84;;;5.17;61.53
62548;BME280;48602;45.192;5.722;2023-02-26T02:17:06;97884.81;;;5.15;61.18
62548;BME280;48602;45.192;5.722;2023-02-26T02:33:17;97866.31;;;4.98;60.76
62548;BME280;48602;45.192;5.722;2023-02-26T02:35:52;97866.38;;;4.97;60.98
62548;BME280;48602;45.192;5.722;2023-02-26T02:38:23;97876.97;;;4.92;60.47
62548;BME280;48602;45.192;5.722;2023-02-26T02:40:57;97866.63;;;4.89;60.50
62548;BME280;48602;45.192;5.722;2023-02-26T02:43:31;97868.44;;;4.87;60.46
62548;BME280;48602;45.192;5.722;2023-02-26T02:46:10;97871.16;;;4.85;60.33
62548;BME280;48602;45.192;5.722;2023-02-26T02:48:47;97875.56;;;4.83;60.05
62548;BME280;48602;45.192;5.722;2023-02-26T02:51:22;97860.94;;;4.79;60.17
62548;BME280;48602;45.192;5.722;2023-02-26T02:54:15;97878.34;;;4.79;60.27
62548;BME280;48602;45.192;5.722;2023-02-26T02:59:34;97855.88;;;4.75;60.05
62548;BME280;48602;45.192;5.722;2023-02-26T03:02:27;97862.03;;;4.72;59.51
62548;BME280;48602;45.192;5.722;2023-02-26T03:04:55;97881.28;;;4.70;60.36
62548;BME280;48602;45.192;5.722;2023-02-26T03:07:21;97854.47;;;4.66;59.91
62548;BME280;48602;45.192;5.722;2023-02-26T03:09:47;97851.06;;;4.64;59.37
62548;BME280;48602;45.192;5.722;2023-02-26T03:12:12;97864.16;;;4.63;59.96
62548;BME280;48602;45.192;5.722;2023-02-26T03:14:38;97850.41;;;4.57;59.73
62548;BME280;48602;45.192;5.722;2023-02-26T03:19:53;97853.97;;;4.55;60.21
62548;BME280;48602;45.192;5.722;2023-02-26T03:25:18;97852.91;;;4.61;59.19
62548;BME280;48602;45.192;5.722;2023-02-26T03:27:54;97880.72;;;4.62;59.48
62548;BME280;48602;45.192;5.722;2023-02-26T03:33:46;97841.84;;;4.54;58.64
62548;BME280;48602;45.192;5.722;2023-02-26T03:36:19;97852.31;;;4.52;59.29
62548;BME280;48602;45.192;5.722;2023-02-26T03:38:50;97857.50;;;4.54;58.85
62548;BME280;48602;45.192;5.722;2023-02-26T03:41:28;97880.03;;;4.56;59.05
62548;BME280;48602;45.192;5.722;2023-02-26T03:44:03;97867.94;;;4.54;58.98
62548;BME280;48602;45.192;5.722;2023-02-26T03:46:44;97900.28;;;4.50;58.50
62548;BME280;48602;45.192;5.722;2023-02-26T03:49:15;97886.25;;;4.52;58.52
62548;BME280;48602;45.192;5.722;2023-02-26T03:51:45;97879.28;;;4.53;58.36
62548;BME280;48602;45.192;5.722;2023-02-26T03:54:21;97866.41;;;4.48;58.60
62548;BME280;48602;45.192;5.722;2023-02-26T03:56:49;97857.72;;;4.48;58.62
62548;BME280;48602;45.192;5.722;2023-02-26T03:59:16;97851.66;;;4.47;58.09
62548;BME280;48602;45.192;5.722;2023-02-26T04:04:21;97855.97;;;4.48;57.47
62548;BME280;48602;45.192;5.722;2023-02-26T04:06:49;97855.06;;;4.49;57.72
62548;BME280;48602;45.192;5.722;2023-02-26T04:09:18;97862.06;;;4.49;58.21
62548;BME280;48602;45.192;5.722;2023-02-26T04:11:45;97883.88;;;4.46;58.07
62548;BME280;48602;45.192;5.722;2023-02-26T04:14:11;97859.69;;;4.41;58.12
62548;BME280;48602;45.192;5.722;2023-02-26T04:16:36;97860.66;;;4.39;58.08
62548;BME280;48602;45.192;5.722;2023-02-26T04:19:02;97866.91;;;4.35;57.95
62548;BME280;48602;45.192;5.722;2023-02-26T04:21:27;97859.25;;;4.30;57.97
62548;BME280;48602;45.192;5.722;2023-02-26T04:23:52;97857.63;;;4.26;58.04
62548;BME280;48602;45.192;5.722;2023-02-26T04:26:18;97855.94;;;4.25;57.77
62548;BME280;48602;45.192;5.722;2023-02-26T04:28:43;97860.31;;;4.25;57.84
62548;BME280;48602;45.192;5.722;2023-02-26T04:31:09;97862.06;;;4.24;58.34
62548;BME280;48602;45.192;5.722;2023-02-26T04:33:35;97858.63;;;4.22;57.95
62548;BME280;48602;45.192;5.722;2023-02-26T04:36:00;97849.97;;;4.21;58.15
62548;BME280;48602;45.192;5.722;2023-02-26T04:38:26;97869.19;;;4.19;57.82
62548;BME280;48602;45.192;5.722;2023-02-26T04:40:52;97828.28;;;4.19;57.66
62548;BME280;48602;45.192;5.722;2023-02-26T04:43:17;97851.84;;;4.18;57.41
62548;BME280;48602;45.192;5.722;2023-02-26T04:45:45;97850.09;;;4.18;57.82
62548;BME280;48602;45.192;5.722;2023-02-26T04:48:12;97862.16;;;4.21;57.51
62548;BME280;48602;45.192;5.722;2023-02-26T04:50:38;97850.09;;;4.18;57.43
62548;BME280;48602;45.192;5.722;2023-02-26T04:53:03;97864.91;;;4.18;57.12
62548;BME280;48602;45.192;5.722;2023-02-26T04:55:29;97846.69;;;4.16;57.29
62548;BME280;48602;45.192;5.722;2023-02-26T04:57:54;97844.09;;;4.16;57.51
62548;BME280;48602;45.192;5.722;2023-02-26T05:00:19;97849.25;;;4.18;57.71
62548;BME280;48602;45.192;5.722;2023-02-26T05:02:45;97858.81;;;4.17;56.91
62548;BME280;48602;45.192;5.722;2023-02-26T05:05:11;97837.88;;;4.19;57.19
62548;BME280;48602;45.192;5.722;2023-02-26T05:07:36;97830.13;;;4.17;57.02
62548;BME280;48602;45.192;5.722;2023-02-26T05:10:04;97824.84;;;4.19;57.32
62548;BME280;48602;45.192;5.722;2023-02-26T05:12:30;97837.06;;;4.18;57.62
62548;BME280;48602;45.192;5.722;2023-02-26T05:14:55;97843.22;;;4.16;57.54
62548;BME280;48602;45.192;5.722;2023-02-26T05:17:21;97831.94;;;4.15;57.61
62548;BME280;48602;45.192;5.722;2023-02-26T05:19:46;97825.81;;;4.16;57.29
62548;BME280;48602;45.192;5.722;2023-02-26T05:22:12;97832.75;;;4.17;57.63
62548;BME280;48602;45.192;5.722;2023-02-26T05:24:38;97845.78;;;4.17;57.48
62548;BME280;48602;45.192;5.722;2023-02-26T05:27:03;97835.34;;;4.17;57.54
62548;BME280;48602;45.192;5.722;2023-02-26T05:29:29;97831.03;;;4.16;57.68
62548;BME280;48602;45.192;5.722;2023-02-26T05:31:54;97824.03;;;4.18;57.58
62548;BME280;48602;45.192;5.722;2023-02-26T05:34:20;97857.97;;;4.17;57.11
62548;BME280;48602;45.192;5.722;2023-02-26T05:36:45;97824.28;;;4.11;57.72
62548;BME280;48602;45.192;5.722;2023-02-26T05:39:11;97807.78;;;4.10;57.23
62548;BME280;48602;45.192;5.722;2023-02-26T05:41:36;97833.91;;;4.09;57.43
62548;BME280;48602;45.192;5.722;2023-02-26T05:44:02;97831.34;;;4.07;57.85
62548;BME280;48602;45.192;5.722;2023-02-26T05:46:27;97820.06;;;4.07;57.20
62548;BME280;48602;45.192;5.722;2023-02-26T05:48:53;97807.03;;;4.07;57.68
62548;BME280;48602;45.192;5.722;2023-02-26T05:51:18;97834.91;;;4.05;57.73
62548;BME280;48602;45.192;5.722;2023-02-26T05:53:44;97815.81;;;4.04;57.65
62548;BME280;48602;45.192;5.722;2023-02-26T05:56:10;97819.25;;;4.05;57.79
62548;BME280;48602;45.192;5.722;2023-02-26T05:58:36;97813.19;;;4.04;58.18
62548;BME280;48602;45.192;5.722;2023-02-26T06:01:01;97800.97;;;4.06;57.90
62548;BME280;48602;45.192;5.722;2023-02-26T06:03:27;97812.28;;;4.05;58.08
62548;BME280;48602;45.192;5.722;2023-02-26T06:05:52;97811.28;;;4.09;57.91
62548;BME280;48602;45.192;5.722;2023-02-26T06:08:18;97822.63;;;4.08;57.92
62548;BME280;48602;45.192;5.722;2023-02-26T06:10:43;97820.66;;;4.15;57.97
62548;BME280;48602;45.192;5.722;2023-02-26T06:13:08;97832.09;;;4.11;58.30
62548;BME280;48602;45.192;5.722;2023-02-26T06:15:34;97847.84;;;4.08;57.68
62548;BME280;48602;45.192;5.722;2023-02-26T06:17:59;97799.16;;;4.08;57.80
62548;BME280;48602;45.192;5.722;2023-02-26T06:20:25;97831.34;;;4.07;58.02
62548;BME280;48602;45.192;5.722;2023-02-26T06:22:50;97834.06;;;4.04;58.41
62548;BME280;48602;45.192;5.722;2023-02-26T06:25:17;97839.41;;;4.01;58.30
62548;BME280;48602;45.192;5.722;2023-02-26T06:27:45;97829.06;;;3.98;58.46
62548;BME280;48602;45.192;5.722;2023-02-26T06:30:11;97830.03;;;3.96;58.42
62548;BME280;48602;45.192;5.722;2023-02-26T06:32:36;97817.03;;;3.94;58.68
62548;BME280;48602;45.192;5.722;2023-02-26T06:35:02;97864.91;;;3.92;58.75
62548;BME280;48602;45.192;5.722;2023-02-26T06:37:27;97830.03;;;3.96;58.08
62548;BME280;48602;45.192;5.722;2023-02-26T06:39:53;97851.88;;;3.92;58.73
62548;BME280;48602;45.192;5.722;2023-02-26T06:42:19;97822.34;;;3.91;58.88
62548;BME280;48602;45.192;5.722;2023-02-26T06:44:47;97848.47;;;3.90;58.75
62548;BME280;48602;45.192;5.722;2023-02-26T06:47:14;97856.28;;;3.90;58.23
62548;BME280;48602;45.192;5.722;2023-02-26T06:49:39;97826.72;;;3.91;57.65
62548;BME280;48602;45.192;5.722;2023-02-26T06:52:04;97860.47;;;3.95;58.07
62548;BME280;48602;45.192;5.722;2023-02-26T06:54:30;97851.72;;;3.96;57.82
62548;BME280;48602;45.192;5.722;2023-02-26T06:56:56;97830.06;;;3.94;58.36
62548;BME280;48602;45.192;5.722;2023-02-26T06:59:22;97821.50;;;3.91;58.57
62548;BME280;48602;45.192;5.722;2023-02-26T07:01:48;97856.34;;;3.88;57.49
62548;BME280;48602;45.192;5.722;2023-02-26T07:04:16;97834.59;;;3.89;57.48
62548;BME280;48602;45.192;5.722;2023-02-26T07:06:45;97858.91;;;3.90;58.08
62548;BME280;48602;45.192;5.722;2023-02-26T07:09:12;97839.91;;;3.86;57.97
62548;BME280;48602;45.192;5.722;2023-02-26T07:11:37;97855.66;;;3.83;58.10
62548;BME280;48602;45.192;5.722;2023-02-26T07:14:02;97826.28;;;3.78;57.92
62548;BME280;48602;45.192;5.722;2023-02-26T07:16:28;97825.47;;;3.76;58.43
62548;BME280;48602;45.192;5.722;2023-02-26T07:18:53;97853.19;;;3.78;58.15
62548;BME280;48602;45.192;5.722;2023-02-26T07:21:19;97842.13;;;3.72;58.14
62548;BME280;48602;45.192;5.722;2023-02-26T07:23:44;97829.25;;;3.67;58.34
62548;BME280;48602;45.192;5.722;2023-02-26T07:26:10;97851.00;;;3.66;58.22
62548;BME280;48602;45.192;5.722;2023-02-26T07:28:35;97845.00;;;3.64;58.03
62548;BME280;48602;45.192;5.722;2023-02-26T07:31:01;97899.75;;;3.63;58.63
62548;BME280;48602;45.192;5.722;2023-02-26T07:33:26;97873.75;;;3.61;58.24
62548;BME280;48602;45.192;5.722;2023-02-26T07:35:53;97881.66;;;3.58;58.31
62548;BME280;48602;45.192;5.722;2023-02-26T07:38:19;97864.22;;;3.60;58.16
62548;BME280;48602;45.192;5.722;2023-02-26T07:40:44;97866.78;;;3.62;58.09
62548;BME280;48602;45.192;5.722;2023-02-26T07:43:10;97837.38;;;3.58;58.24
62548;BME280;48602;45.192;5.722;2023-02-26T07:45:36;97886.06;;;3.56;58.70
62548;BME280;48602;45.192;5.722;2023-02-26T07:48:01;97846.09;;;3.57;58.44
62548;BME280;48602;45.192;5.722;2023-02-26T07:50:27;97820.06;;;3.56;58.22
62548;BME280;48602;45.192;5.722;2023-02-26T07:52:52;97844.47;;;3.53;58.27
62548;BME280;48602;45.192;5.722;2023-02-26T07:55:18;97833.06;;;3.57;57.93
62548;BME280;48602;45.192;5.722;2023-02-26T07:57:44;97865.22;;;3.56;57.54
62548;BME280;48602;45.192;5.722;2023-02-26T08:00:10;97862.66;;;3.55;57.38
62548;BME280;48602;45.192;5.722;2023-02-26T08:02:36;97869.63;;;3.54;57.55
62548;BME280;48602;45.192;5.722;2023-02-26T08:05:02;97846.19;;;3.54;57.13
62548;BME280;48602;45.192;5.722;2023-02-26T08:07:27;97878.25;;;3.56;57.69
62548;BME280;48602;45.192;5.722;2023-02-26T08:09:53;97846.97;;;3.56;57.52
62548;BME280;48602;45.192;5.722;2023-02-26T08:12:19;97853.91;;;3.57;56.71
62548;BME280;48602;45.192;5.722;2023-02-26T08:14:44;97865.19;;;3.58;56.43
62548;BME280;48602;45.192;5.722;2023-02-26T08:17:10;97855.59;;;3.58;56.82
62548;BME280;48602;45.192;5.722;2023-02-26T08:19:35;97863.47;;;3.57;56.24
62548;BME280;48602;45.192;5.722;2023-02-26T08:22:01;97865.97;;;3.60;55.96
62548;BME280;48602;45.192;5.722;2023-02-26T08:24:27;97842.66;;;3.55;56.54
62548;BME280;48602;45.192;5.722;2023-02-26T08:26:52;97867.81;;;3.56;56.10
62548;BME280;48602;45.192;5.722;2023-02-26T08:29:18;97854.84;;;3.55;55.62
62548;BME280;48602;45.192;5.722;2023-02-26T08:31:45;97853.81;;;3.60;55.84
62548;BME280;48602;45.192;5.722;2023-02-26T08:34:13;97867.59;;;3.64;55.41
62548;BME280;48602;45.192;5.722;2023-02-26T08:36:42;97872.81;;;3.64;54.96
62548;BME280;48602;45.192;5.722;2023-02-26T08:39:08;97853.75;;;3.62;54.83
62548;BME280;48602;45.192;5.722;2023-02-26T08:41:33;97883.38;;;3.59;54.45
62548;BME280;48602;45.192;5.722;2023-02-26T08:44:01;97873.00;;;3.58;54.32
62548;BME280;48602;45.192;5.722;2023-02-26T08:46:26;97924.25;;;3.57;54.71
62548;BME280;48602;45.192;5.722;2023-02-26T08:48:52;97901.66;;;3.58;54.12
62548;BME280;48602;45.192;5.722;2023-02-26T08:51:19;97892.09;;;3.58;53.80
62548;BME280;48602;45.192;5.722;2023-02-26T08:53:44;97849.44;;;3.61;53.01
62548;BME280;48602;45.192;5.722;2023-02-26T08:58:48;97879.78;;;3.63;53.28
62548;BME280;48602;45.192;5.722;2023-02-26T09:01:13;97861.38;;;3.68;52.72
62548;BME280;48602;45.192;5.722;2023-02-26T09:03:39;97893.44;;;3.70;51.97
62548;BME280;48602;45.192;5.722;2023-02-26T09:06:04;97915.94;;;3.72;52.10
62548;BME280;48602;45.192;5.722;2023-02-26T09:08:31;97867.22;;;3.74;51.87
62548;BME280;48602;45.192;5.722;2023-02-26T09:11:02;97915.03;;;3.73;51.54
62548;BME280;48602;45.192;5.722;2023-02-26T09:13:28;97894.41;;;3.67;50.88
62548;BME280;48602;45.192;5.722;2023-02-26T09:15:55;97912.53;;;3.70;50.99
62548;BME280;48602;45.192;5.722;2023-02-26T09:18:20;97891.81;;;3.67;51.32
62548;BME280;48602;45.192;5.722;2023-02-26T09:20:46;97896.16;;;3.67;51.19
62548;BME280;48602;45.192;5.722;2023-02-26T09:23:11;97882.22;;;3.68;50.71
62548;BME280;48602;45.192;5.722;2023-02-26T09:25:37;97894.25;;;3.72;50.74
62548;BME280;48602;45.192;5.722;2023-02-26T09:28:03;97874.09;;;3.77;50.48
62548;BME280;48602;45.192;5.722;2023-02-26T09:30:32;97905.34;;;3.78;49.73
62548;BME280;48602;45.192;5.722;2023-02-26T09:32:57;97887.94;;;3.79;49.60
62548;BME280;48602;45.192;5.722;2023-02-26T09:35:23;97900.88;;;3.82;49.63
62548;BME280;48602;45.192;5.722;2023-02-26T09:37:48;97899.94;;;3.84;48.63
62548;BME280;48602;45.192;5.722;2023-02-26T09:40:44;97890.28;;;3.86;48.83
62548;BME280;48602;45.192;5.722;2023-02-26T09:46:21;97919.75;;;3.89;48.72
62548;BME280;48602;45.192;5.722;2023-02-26T09:48:51;97918.00;;;3.89;47.93
62548;BME280;48602;45.192;5.722;2023-02-26T09:51:22;97882.41;;;3.88;48.16
62548;BME280;48602;45.192;5.722;2023-02-26T09:53:50;97890.19;;;3.90;47.80
62548;BME280;48602;45.192;5.722;2023-02-26T09:56:20;97910.03;;;3.94;48.17
62548;BME280;48602;45.192;5.722;2023-02-26T09:58:46;97875.94;;;4.00;47.45
62548;BME280;48602;45.192;5.722;2023-02-26T10:01:28;97902.66;;;4.06;47.26
62548;BME280;48602;45.192;5.722;2023-02-26T10:04:36;97904.31;;;4.09;47.81
62548;BME280;48602;45.192;5.722;2023-02-26T10:12:35;97907.91;;;4.31;44.87
62548;BME280;48602;45.192;5.722;2023-02-26T10:20:20;97919.56;;;4.46;45.57
62548;BME280;48602;45.192;5.722;2023-02-26T10:23:22;97918.59;;;4.48;44.88
62548;BME280;48602;45.192;5.722;2023-02-26T10:26:01;97907.94;;;4.54;45.39
62548;BME280;48602;45.192;5.722;2023-02-26T10:31:35;97909.31;;;4.65;43.95
62548;BME280;48602;45.192;5.722;2023-02-26T10:36:47;97920.28;;;4.74;42.81
62548;BME280;48602;45.192;5.722;2023-02-26T10:42:08;97924.38;;;4.81;41.80
62548;BME280;48602;45.192;5.722;2023-02-26T10:44:48;97914.94;;;4.77;41.37
62548;BME280;48602;45.192;5.722;2023-02-26T10:50:25;97950.44;;;4.83;41.01
62548;BME280;48602;45.192;5.722;2023-02-26T10:52:53;97925.13;;;4.85;40.73
62548;BME280;48602;45.192;5.722;2023-02-26T10:58:12;97914.75;;;4.83;41.04
62548;BME280;48602;45.192;5.722;2023-02-26T11:00:41;97896.31;;;4.86;42.21
62548;BME280;48602;45.192;5.722;2023-02-26T11:03:14;97932.72;;;4.91;41.61
62548;BME280;48602;45.192;5.722;2023-02-26T11:05:42;97903.03;;;4.94;41.85
62548;BME280;48602;45.192;5.722;2023-02-26T11:08:17;97902.13;;;4.95;41.68
62548;BME280;48602;45.192;5.722;2023-02-26T11:10:50;97897.75;;;4.95;42.00
62548;BME280;48602;45.192;5.722;2023-02-26T11:13:16;97905.69;;;4.92;42.24
62548;BME280;48602;45.192;5.722;2023-02-26T11:15:45;97899.69;;;4.90;42.38
62548;BME280;48602;45.192;5.722;2023-02-26T11:18:14;97897.25;;;4.85;42.23
62548;BME280;48602;45.192;5.722;2023-02-26T11:20:44;97971.19;;;4.86;41.87
62548;BME280;48602;45.192;5.722;2023-02-26T11:23:18;97911.94;;;4.88;42.44
62548;BME280;48602;45.192;5.722;2023-02-26T11:25:45;97930.97;;;4.91;41.83
62548;BME280;48602;45.192;5.722;2023-02-26T11:28:29;97909.06;;;4.96;42.30
62548;BME280;48602;45.192;5.722;2023-02-26T11:31:00;97913.44;;;4.95;43.24
62548;BME280;48602;45.192;5.722;2023-02-26T11:33:42;97904.63;;;4.98;42.99
62548;BME280;48602;45.192;5.722;2023-02-26T11:36:14;97918.53;;;4.98;41.47
62548;BME280;48602;45.192;5.722;2023-02-26T11:38:51;97889.72;;;5.01;41.22
62548;BME280;48602;45.192;5.722;2023-02-26T11:41:17;97913.88;;;5.06;41.98
62548;BME280;48602;45.192;5.722;2023-02-26T11:43:47;97898.16;;;5.08;41.33
62548;BME280;48602;45.192;5.722;2023-02-26T11:46:14;97900.81;;;5.06;41.48
62548;BME280;48602;45.192;5.722;2023-02-26T11:48:45;97899.97;;;5.06;41.34
62548;BME280;48602;45.192;5.722;2023-02-26T11:51:18;97903.41;;;5.06;41.96
62548;BME280;48602;45.192;5.722;2023-02-26T11:53:49;97911.31;;;5.05;41.97
62548;BME280;48602;45.192;5.722;2023-02-26T11:56:31;97909.38;;;5.10;40.85
62548;BME280;48602;45.192;5.722;2023-02-26T11:59:16;97886.41;;;5.19;42.35
62548;BME280;48602;45.192;5.722;2023-02-26T12:01:42;97881.59;;;5.31;41.01
62548;BME280;48602;45.192;5.722;2023-02-26T12:04:11;97905.81;;;5.36;40.19
62548;BME280;48602;45.192;5.722;2023-02-26T12:06:38;97896.75;;;5.44;41.51
62548;BME280;48602;45.192;5.722;2023-02-26T12:09:09;97934.06;;;5.48;41.47
62548;BME280;48602;45.192;5.722;2023-02-26T12:19:46;97898.56;;;5.64;40.75
62548;BME280;48602;45.192;5.722;2023-02-26T12:22:44;97917.41;;;5.72;38.78
62548;BME280;48602;45.192;5.722;2023-02-26T12:28:10;97906.69;;;5.78;39.38
62548;BME280;48602;45.192;5.722;2023-02-26T12:39:24;97897.34;;;5.73;40.35
62548;BME280;48602;45.192;5.722;2023-02-26T12:42:25;97902.50;;;5.74;39.73
62548;BME280;48602;45.192;5.722;2023-02-26T12:45:03;97891.25;;;5.72;39.60
62548;BME280;48602;45.192;5.722;2023-02-26T13:21:11;97895.47;;;5.09;40.54
62548;BME280;48602;45.192;5.722;2023-02-26T13:23:58;97876.34;;;5.09;41.21
62548;BME280;48602;45.192;5.722;2023-02-26T13:26:33;97882.31;;;5.12;40.76
62548;BME280;48602;45.192;5.722;2023-02-26T13:29:12;97877.88;;;5.14;40.73
62548;BME280;48602;45.192;5.722;2023-02-26T13:32:05;97877.75;;;5.17;41.12
62548;BME280;48602;45.192;5.722;2023-02-26T13:34:57;97883.91;;;5.16;40.54
62548;BME280;48602;45.192;5.722;2023-02-26T13:37:28;97901.44;;;5.13;40.03
62548;BME280;48602;45.192;5.722;2023-02-26T13:42:50;97898.03;;;5.11;40.57
62548;BME280;48602;45.192;5.722;2023-02-26T13:53:35;97879.53;;;5.17;40.17
62548;BME280;48602;45.192;5.722;2023-02-26T14:04:28;97886.81;;;5.31;39.70
62548;BME280;48602;45.192;5.722;2023-02-26T14:07:10;97913.75;;;5.33;39.80
62548;BME280;48602;45.192;5.722;2023-02-26T14:09:55;97881.34;;;5.37;39.58
62548;BME280;48602;45.192;5.722;2023-02-26T14:17:47;97876.13;;;5.37;39.14
62548;BME280;48602;45.192;5.722;2023-02-26T14:22:42;97898.28;;;5.26;38.91
62548;BME280;48602;45.192;5.722;2023-02-26T14:25:37;97873.03;;;5.27;38.92
62548;BME280;48602;45.192;5.722;2023-02-26T14:28:32;97884.75;;;5.17;38.92
62548;BME280;48602;45.192;5.722;2023-02-26T14:31:08;97875.38;;;5.11;38.88
62548;BME280;48602;45.192;5.722;2023-02-26T14:33:44;97908.38;;;5.14;38.80
62548;BME280;48602;45.192;5.722;2023-02-26T14:36:17;97870.25;;;5.08;39.47
62548;BME280;48602;45.192;5.722;2023-02-26T14:38:45;97891.28;;;5.05;38.61
62548;BME280;48602;45.192;5.722;2023-02-26T14:41:33;97858.38;;;5.01;38.97
62548;BME280;48602;45.192;5.722;2023-02-26T14:44:13;97855.13;;;4.95;39.36
62548;BME280;48602;45.192;5.722;2023-02-26T14:46:41;97871.66;;;4.95;38.65
62548;BME280;48602;45.192;5.722;2023-02-26T14:49:25;97857.78;;;4.93;39.46
62548;BME280;48602;45.192;5.722;2023-02-26T14:52:21;97879.66;;;4.90;39.45
62548;BME280;48602;45.192;5.722;2023-02-26T14:55:02;97878.03;;;4.86;39.34
62548;BME280;48602;45.192;5.722;2023-02-26T15:00:52;97867.22;;;4.74;39.91
62548;BME280;48602;45.192;5.722;2023-02-26T15:04:04;97871.78;;;4.69;39.81
62548;BME280;48602;45.192;5.722;2023-02-26T15:24:12;97868.38;;;4.42;40.84
62548;BME280;48602;45.192;5.722;2023-02-26T15:26:50;97915.44;;;4.39;40.98
62548;BME280;48602;45.192;5.722;2023-02-26T15:29:21;97907.72;;;4.36;40.83
62548;BME280;48602;45.192;5.722;2023-02-26T15:31:53;97900.81;;;4.35;41.28
62548;BME280;48602;45.192;5.722;2023-02-26T15:34:20;97915.63;;;4.34;41.13
62548;BME280;48602;45.192;5.722;2023-02-26T15:36:50;97933.19;;;4.29;41.00
62548;BME280;48602;45.192;5.722;2023-02-26T15:39:17;97925.41;;;4.28;41.28
62548;BME280;48602;45.192;5.722;2023-02-26T15:41:47;97942.00;;;4.25;41.79
62548;BME280;48602;45.192;5.722;2023-02-26T15:44:17;97928.06;;;4.26;41.81
62548;BME280;48602;45.192;5.722;2023-02-26T15:46:46;97921.09;;;4.27;41.61
62548;BME280;48602;45.192;5.722;2023-02-26T15:51:49;97941.06;;;4.28;42.33
62548;BME280;48602;45.192;5.722;2023-02-26T15:54:18;97943.81;;;4.23;42.62
62548;BME280;48602;45.192;5.722;2023-02-26T15:56:45;97949.97;;;4.20;42.55
62548;BME280;48602;45.192;5.722;2023-02-26T15:59:21;97952.63;;;4.19;42.78
62548;BME280;48602;45.192;5.722;2023-02-26T16:01:50;97941.44;;;4.17;42.85
62548;BME280;48602;45.192;5.722;2023-02-26T16:04:18;97945.94;;;4.12;43.27
62548;BME280;48602;45.192;5.722;2023-02-26T16:06:49;97948.59;;;4.10;43.37
62548;BME280;48602;45.192;5.722;2023-02-26T16:09:29;97947.03;;;4.05;43.47
62548;BME280;48602;45.192;5.722;2023-02-26T16:11:57;97963.84;;;3.96;43.38
62548;BME280;48602;45.192;5.722;2023-02-26T16:14:30;97960.47;;;3.93;44.01
62548;BME280;48602;45.192;5.722;2023-02-26T16:16:57;97950.25;;;3.86;44.59
62548;BME280;48602;45.192;5.722;2023-02-26T16:19:33;97966.00;;;3.83;45.52
62548;BME280;48602;45.192;5.722;2023-02-26T16:22:03;97967.94;;;3.77;45.45
62548;BME280;48602;45.192;5.722;2023-02-26T16:24:31;97960.28;;;3.71;45.94
62548;BME280;48602;45.192;5.722;2023-02-26T16:27:05;97951.84;;;3.64;46.07
62548;BME280;48602;45.192;5.722;2023-02-26T16:29:34;97963.19;;;3.62;45.92